Time;durP1;ratioP1;P1;durP2;ratioP2;P2;SDS_P1;SDS_P2;PMS_P1;PMS_P2;Temp;Humidity;BMP_temperature;BMP_pressure;BME280_temperature;BME280_humidity;BME280_pressure;Samples;Min_cycle;Max_cycle;Signal;HPM_P1;HPM_P2
2023/08/23 00:01:01;;;;;;;13.60;9.00;;;;;;;18.06;100.00;99278.89;109642;1250;59025;-66
2023/08/23 00:03:44;;;;;;;18.90;9.30;;;;;;;18.09;100.00;99273.20;109612;1250;75395;-69
2023/08/23 00:06:10;;;;;;;19.40;10.60;;;;;;;18.11;100.00;99266.04;109700;1250;67695;-67
2023/08/23 00:08:37;;;;;;;15.00;10.00;;;;;;;18.13;100.00;99256.36;109654;1250;72676;-68
2023/08/23 00:11:03;;;;;;;14.70;9.20;;;;;;;18.15;100.00;99257.80;109636;1250;58927;-66
2023/08/23 00:13:30;;;;;;;12.30;9.20;;;;;;;18.15;100.00;99256.67;109697;1250;58966;-69
2023/08/23 00:15:56;;;;;;;15.30;9.50;;;;;;;18.16;100.00;99256.61;109652;1250;73474;-64
2023/08/23 00:18:23;;;;;;;12.70;8.90;;;;;;;18.18;100.00;99256.72;109698;1250;66352;-67
2023/08/23 00:20:49;;;;;;;15.60;8.70;;;;;;;18.20;100.00;99260.42;109625;1250;72440;-64
2023/08/23 00:23:16;;;;;;;13.40;8.90;;;;;;;18.22;100.00;99265.38;109602;1250;62661;-66
2023/08/23 00:25:44;;;;;;;15.00;8.70;;;;;;;18.28;100.00;99262.54;109671;1250;60141;-67
2023/08/23 00:28:11;;;;;;;13.40;8.70;;;;;;;18.34;100.00;99262.88;109626;1254;73188;-68
2023/08/23 00:30:56;;;;;;;14.90;8.60;;;;;;;18.40;100.00;99261.07;109706;1250;67706;-65
2023/08/23 00:33:22;;;;;;;23.00;9.20;;;;;;;18.49;100.00;99262.98;109583;1250;72909;-66
2023/08/23 00:35:49;;;;;;;10.20;8.50;;;;;;;18.55;100.00;99264.32;109586;1250;59011;-68
2023/08/23 00:38:16;;;;;;;12.60;8.50;;;;;;;18.54;100.00;99259.14;109508;1250;61173;-68
2023/08/23 00:40:43;;;;;;;13.20;7.20;;;;;;;18.53;100.00;99258.55;109677;1250;74913;-66
2023/08/23 00:43:09;;;;;;;14.20;8.10;;;;;;;18.48;100.00;99258.25;109546;1249;66701;-67
2023/08/23 00:45:36;;;;;;;9.40;7.70;;;;;;;18.43;100.00;99259.66;109633;1250;72914;-65
2023/08/23 00:48:03;;;;;;;11.50;8.10;;;;;;;18.40;100.00;99261.35;109653;1250;60622;-64
2023/08/23 00:50:33;;;;;;;10.60;7.50;;;;;;;18.39;100.00;99267.95;109635;1250;60293;-68
2023/08/23 00:52:59;;;;;;;10.70;7.60;;;;;;;18.38;100.00;99268.08;109571;1250;74352;-66
2023/08/23 00:55:28;;;;;;;13.30;7.70;;;;;;;18.37;100.00;99270.36;109580;1250;66746;-69
2023/08/23 00:57:55;;;;;;;14.40;7.90;;;;;;;18.37;100.00;99268.90;109612;1250;72493;-64
2023/08/23 01:00:22;;;;;;;12.90;7.90;;;;;;;18.37;100.00;99277.48;109695;1250;61722;-67
2023/08/23 01:02:48;;;;;;;14.60;7.90;;;;;;;18.38;100.00;99282.99;109671;1250;59222;-64
2023/08/23 01:05:15;;;;;;;8.80;6.90;;;;;;;18.39;100.00;99291.20;109652;1250;73762;-69
2023/08/23 01:08:21;;;;;;;10.80;8.00;;;;;;;18.40;100.00;99293.34;109755;1250;66738;-67
2023/08/23 01:10:51;;;;;;;8.50;7.50;;;;;;;18.42;100.00;99280.38;109355;1250;71125;-65
2023/08/23 01:13:24;;;;;;;12.40;8.80;;;;;;;18.40;100.00;99287.16;109586;1251;59464;-66
2023/08/23 01:15:52;;;;;;;12.10;9.00;;;;;;;18.31;100.00;99280.43;109683;1251;59050;-66
2023/08/23 01:18:19;;;;;;;18.50;9.80;;;;;;;18.22;100.00;99272.17;109726;1250;74302;-69
2023/08/23 01:20:48;;;;;;;15.00;9.60;;;;;;;18.14;100.00;99275.53;109475;1250;68674;-69
2023/08/23 01:23:15;;;;;;;22.10;9.20;;;;;;;18.09;100.00;99272.94;109537;1250;72338;-69
2023/08/23 01:25:43;;;;;;;13.60;10.70;;;;;;;18.08;100.00;99269.55;109506;1251;61778;-68
2023/08/23 01:28:10;;;;;;;18.40;10.50;;;;;;;18.07;100.00;99271.71;109619;1250;60310;-69
2023/08/23 01:30:37;;;;;;;28.60;11.90;;;;;;;18.07;100.00;99269.31;109709;1252;74608;-66
2023/08/23 01:33:12;;;;;;;34.60;14.00;;;;;;;18.10;100.00;99276.12;109558;1250;66623;-67
2023/08/23 01:35:49;;;;;;;29.40;12.70;;;;;;;18.13;100.00;99275.30;109647;1250;71434;-68
2023/08/23 01:38:15;;;;;;;27.20;13.00;;;;;;;18.17;100.00;99273.96;109462;1251;60250;-69
2023/08/23 01:40:42;;;;;;;24.90;11.70;;;;;;;18.21;100.00;99273.64;109627;1250;58858;-67
2023/08/23 01:43:08;;;;;;;30.10;11.70;;;;;;;18.23;100.00;99275.73;109488;1251;74488;-65
2023/08/23 01:45:35;;;;;;;25.40;10.80;;;;;;;18.26;100.00;99273.95;109562;1250;60059;-66
2023/08/23 01:48:02;;;;;;;24.40;10.80;;;;;;;18.27;100.00;99271.30;109680;1250;74015;-67
2023/08/23 01:50:29;;;;;;;26.90;10.10;;;;;;;18.27;100.00;99268.14;109625;1250;58928;-65
2023/08/23 01:52:55;;;;;;;20.30;10.60;;;;;;;18.26;100.00;99265.99;109658;1250;58914;-65
2023/08/23 01:55:23;;;;;;;23.90;12.00;;;;;;;18.26;100.00;99267.56;109572;1251;74491;-66
2023/08/23 01:57:50;;;;;;;22.20;11.40;;;;;;;18.27;100.00;99267.70;109552;1250;67690;-68
2023/08/23 02:00:17;;;;;;;19.00;10.70;;;;;;;18.25;100.00;99264.96;109547;1250;72792;-68
2023/08/23 02:02:46;;;;;;;21.00;10.80;;;;;;;18.23;100.00;99269.64;109651;1250;60786;-69
2023/08/23 02:05:13;;;;;;;19.30;10.40;;;;;;;18.20;100.00;99273.23;109492;1253;60136;-68
2023/08/23 02:07:40;;;;;;;20.20;9.40;;;;;;;18.18;100.00;99276.15;109692;1250;74307;-69
2023/08/23 02:10:07;;;;;;;18.40;9.80;;;;;;;18.18;100.00;99277.10;109736;1250;67744;-67
2023/08/23 02:12:34;;;;;;;22.70;10.30;;;;;;;18.16;100.00;99271.79;109617;1250;72737;-66
2023/08/23 02:15:00;;;;;;;24.20;11.10;;;;;;;18.16;100.00;99269.09;109524;1251;59296;-70
2023/08/23 02:17:27;;;;;;;29.60;11.90;;;;;;;18.17;100.00;99266.91;109670;1250;60032;-69
2023/08/23 02:19:54;;;;;;;25.20;12.10;;;;;;;18.17;100.00;99260.95;109727;1250;74430;-66
2023/08/23 02:22:20;;;;;;;21.90;11.10;;;;;;;18.16;100.00;99261.55;109681;1250;66909;-68
2023/08/23 02:24:47;;;;;;;24.30;12.20;;;;;;;18.14;100.00;99262.09;109640;1250;72385;-67
2023/08/23 02:27:13;;;;;;;18.90;10.50;;;;;;;18.14;100.00;99252.56;109601;1250;59529;-67
2023/08/23 02:29:40;;;;;;;16.10;10.30;;;;;;;18.14;100.00;99249.16;109692;1250;60163;-65
2023/08/23 02:32:07;;;;;;;14.00;9.50;;;;;;;18.14;100.00;99248.69;109692;1250;73599;-69
2023/08/23 02:34:33;;;;;;;15.70;9.30;;;;;;;18.17;100.00;99246.06;109548;1250;67792;-69
2023/08/23 02:37:00;;;;;;;17.90;11.00;;;;;;;18.19;100.00;99238.16;109539;1256;72663;-69
2023/08/23 02:39:27;;;;;;;16.70;9.40;;;;;;;18.19;100.00;99233.48;109684;1250;60098;-64
2023/08/23 02:41:53;;;;;;;16.50;9.30;;;;;;;18.20;100.00;99240.52;109718;1250;60179;-66
2023/08/23 02:44:20;;;;;;;22.10;9.60;;;;;;;18.18;100.00;99242.35;109699;1250;74709;-66
2023/08/23 02:46:46;;;;;;;20.70;9.50;;;;;;;18.17;100.00;99242.63;109712;1250;67686;-68
2023/08/23 02:49:13;;;;;;;20.60;9.90;;;;;;;18.14;100.00;99244.38;109680;1250;71200;-68
2023/08/23 02:51:40;;;;;;;17.70;8.90;;;;;;;18.14;100.00;99233.87;109719;1250;59018;-69
2023/08/23 02:54:06;;;;;;;20.20;8.80;;;;;;;18.15;100.00;99230.46;109704;1250;58917;-67
2023/08/23 02:56:33;;;;;;;22.80;10.30;;;;;;;18.14;100.00;99222.89;109626;1250;73203;-68
2023/08/23 02:59:00;;;;;;;13.70;9.70;;;;;;;18.10;100.00;99213.88;109640;1250;66802;-65
2023/08/23 03:01:26;;;;;;;16.20;10.10;;;;;;;18.05;100.00;99215.49;109554;1250;72396;-66
2023/08/23 03:03:53;;;;;;;15.70;10.30;;;;;;;18.03;100.00;99216.39;109595;1250;60537;-66
2023/08/23 03:06:21;;;;;;;17.60;9.00;;;;;;;18.05;100.00;99224.27;109706;1250;60232;-64
2023/08/23 03:08:48;;;;;;;13.00;8.80;;;;;;;18.08;100.00;99224.42;109669;1250;73585;-65
2023/08/23 03:11:15;;;;;;;19.20;9.40;;;;;;;18.09;100.00;99236.13;109663;1250;67882;-65
2023/08/23 03:13:41;;;;;;;21.20;8.80;;;;;;;18.08;100.00;99239.78;109571;1250;71375;-66
2023/08/23 03:16:08;;;;;;;15.30;9.50;;;;;;;18.08;100.00;99237.83;109656;1250;61075;-66
2023/08/23 03:18:34;;;;;;;12.30;9.30;;;;;;;18.09;100.00;99240.60;109643;1250;58951;-67
2023/08/23 03:21:01;;;;;;;12.10;8.50;;;;;;;18.13;100.00;99237.30;109695;1250;73190;-67
2023/08/23 03:23:28;;;;;;;15.30;9.20;;;;;;;18.16;100.00;99235.83;109727;1250;67905;-67
2023/08/23 03:25:56;;;;;;;20.90;10.40;;;;;;;18.22;100.00;99244.34;109531;1250;72346;-69
2023/08/23 03:28:23;;;;;;;18.60;9.90;;;;;;;18.27;100.00;99244.64;109550;1251;59478;-67
2023/08/23 03:30:49;;;;;;;18.30;9.10;;;;;;;18.30;100.00;99240.11;109547;1253;58917;-65
2023/08/23 03:33:16;;;;;;;17.00;10.60;;;;;;;18.31;100.00;99238.73;109661;1250;73372;-66
2023/08/23 03:35:42;;;;;;;23.30;10.00;;;;;;;18.32;100.00;99245.05;109534;1250;66819;-67
2023/08/23 03:38:09;;;;;;;17.60;9.30;;;;;;;18.32;100.00;99246.80;109619;1250;72545;-67
2023/08/23 03:40:39;;;;;;;16.60;8.40;;;;;;;18.30;100.00;99245.77;109643;1250;60472;-67
2023/08/23 03:43:05;;;;;;;19.20;9.50;;;;;;;18.27;100.00;99248.42;109541;1250;60391;-68
2023/08/23 03:45:33;;;;;;;14.30;8.70;;;;;;;18.26;100.00;99249.35;109467;1250;74920;-65
2023/08/23 03:48:02;;;;;;;14.50;9.00;;;;;;;18.26;100.00;99250.34;109646;1251;67756;-65
2023/08/23 03:50:28;;;;;;;15.80;9.60;;;;;;;18.26;100.00;99247.80;109572;1250;72402;-65
2023/08/23 03:52:55;;;;;;;18.40;9.30;;;;;;;18.26;100.00;99241.27;109560;1250;59027;-65
2023/08/23 03:55:22;;;;;;;18.90;9.90;;;;;;;18.25;100.00;99243.89;109624;1250;59027;-64
2023/08/23 03:57:50;;;;;;;15.50;9.30;;;;;;;18.22;100.00;99246.95;109661;1250;73426;-68
2023/08/23 04:00:17;;;;;;;20.10;9.70;;;;;;;18.20;100.00;99239.88;109654;1250;67729;-69
2023/08/23 04:02:44;;;;;;;15.80;8.20;;;;;;;18.21;100.00;99232.09;109615;1250;72448;-65
2023/08/23 04:05:11;;;;;;;14.30;9.40;;;;;;;18.22;100.00;99229.17;109502;1250;61685;-66
2023/08/23 04:07:39;;;;;;;22.00;9.40;;;;;;;18.25;100.00;99229.46;109727;1250;59130;-60
2023/08/23 04:10:06;;;;;;;19.80;10.10;;;;;;;18.26;100.00;99229.99;109626;1250;74980;-61
2023/08/23 04:12:33;;;;;;;14.60;9.30;;;;;;;18.25;100.00;99228.92;109691;1251;66668;-64
2023/08/23 04:15:00;;;;;;;11.50;8.30;;;;;;;18.27;100.00;99228.82;109617;1250;71216;-65
2023/08/23 04:17:26;;;;;;;13.70;8.60;;;;;;;18.38;100.00;99238.88;109544;1250;60531;-67
2023/08/23 04:19:53;;;;;;;15.30;8.60;;;;;;;18.53;100.00;99241.34;109615;1250;58959;-63
2023/08/23 04:22:20;;;;;;;15.10;9.50;;;;;;;18.63;100.00;99241.70;109612;1250;72887;-67
2023/08/23 04:24:51;;;;;;;17.00;9.80;;;;;;;18.67;100.00;99242.77;109649;1253;66351;-65
2023/08/23 04:27:18;;;;;;;16.90;9.30;;;;;;;18.73;100.00;99248.12;109518;1250;72488;-67
2023/08/23 04:29:45;;;;;;;14.40;9.30;;;;;;;18.81;100.00;99254.39;109474;1250;61655;-66
2023/08/23 04:32:12;;;;;;;21.70;10.00;;;;;;;18.87;100.00;99253.20;109516;1250;60162;-64
2023/08/23 04:34:39;;;;;;;14.50;8.50;;;;;;;18.91;100.00;99257.36;109570;1255;74571;-67
2023/08/23 04:37:07;;;;;;;14.50;9.10;;;;;;;18.93;100.00;99253.04;109717;1250;66786;-67
2023/08/23 04:39:34;;;;;;;19.60;9.40;;;;;;;18.95;100.00;99246.59;109573;1250;72436;-64
2023/08/23 04:42:01;;;;;;;13.60;10.20;;;;;;;18.97;100.00;99243.84;109459;1251;60404;-67
2023/08/23 04:44:29;;;;;;;19.50;10.30;;;;;;;18.99;100.00;99246.75;109520;1250;60441;-67
2023/08/23 04:46:58;;;;;;;33.70;10.60;;;;;;;19.03;100.00;99244.30;109602;1250;74562;-63
2023/08/23 04:49:25;;;;;;;18.80;9.80;;;;;;;19.09;100.00;99247.42;109642;1250;66596;-66
2023/08/23 04:51:52;;;;;;;22.30;12.50;;;;;;;19.24;100.00;99241.61;109661;1250;72635;-67
2023/08/23 04:54:18;;;;;;;35.50;11.80;;;;;;;19.52;100.00;99244.12;109480;1250;61674;-67
2023/08/23 04:56:45;;;;;;;22.80;10.80;;;;;;;19.93;100.00;99241.23;109598;1251;58860;-67
2023/08/23 04:59:13;;;;;;;29.80;11.70;;;;;;;20.45;100.00;99235.02;109515;1250;73354;-65
2023/08/23 05:01:40;;;;;;;31.50;11.40;;;;;;;20.88;100.00;99225.27;109544;1250;66810;-67
2023/08/23 05:04:07;;;;;;;31.20;10.70;;;;;;;21.28;100.00;99219.67;109482;1251;72688;-65
2023/08/23 05:06:35;;;;;;;38.40;12.10;;;;;;;21.69;100.00;99220.86;109528;1253;60186;-66
2023/08/23 05:09:04;;;;;;;24.30;11.80;;;;;;;22.04;100.00;99215.45;109468;1250;61556;-65
2023/08/23 05:11:31;;;;;;;22.80;11.90;;;;;;;22.22;100.00;99223.41;109601;1250;74649;-65
2023/08/23 05:13:58;;;;;;;19.80;11.30;;;;;;;22.27;100.00;99212.27;109634;1250;67714;-66
2023/08/23 05:16:25;;;;;;;22.20;11.40;;;;;;;22.40;100.00;99208.52;109291;1250;218937;-67
2023/08/23 05:18:51;;;;;;;19.80;11.30;;;;;;;22.51;100.00;99207.04;109475;1250;59144;-66
2023/08/23 05:21:18;;;;;;;17.30;10.80;;;;;;;22.60;100.00;99208.11;109686;1251;59042;-65
2023/08/23 05:23:47;;;;;;;21.30;10.80;;;;;;;22.65;100.00;99208.23;109478;1250;72878;-66
2023/08/23 05:26:13;;;;;;;23.40;11.20;;;;;;;22.76;100.00;99206.59;109645;1251;66871;-67
2023/08/23 05:28:40;;;;;;;17.50;10.40;;;;;;;22.86;100.00;99205.59;109488;1251;72886;-70
2023/08/23 05:31:06;;;;;;;19.60;10.30;;;;;;;22.92;100.00;99199.79;109504;1252;58994;-67
2023/08/23 05:33:33;;;;;;;17.30;10.20;;;;;;;22.87;100.00;99204.14;109574;1250;60068;-68
2023/08/23 05:36:03;;;;;;;17.50;9.70;;;;;;;22.74;100.00;99208.55;109552;1250;74343;-65
2023/08/23 05:38:30;;;;;;;18.30;10.70;;;;;;;22.67;100.00;99214.14;109466;1250;66782;-70
2023/08/23 05:40:57;;;;;;;15.50;10.10;;;;;;;22.64;100.00;99216.32;109405;1250;71071;-67
2023/08/23 05:43:24;;;;;;;18.30;9.90;;;;;;;22.63;100.00;99221.23;109639;1250;60306;-65
2023/08/23 05:45:54;;;;;;;13.90;9.80;;;;;;;22.63;100.00;99224.92;109464;1251;59003;-72
2023/08/23 05:48:27;;;;;;;15.90;10.10;;;;;;;22.74;100.00;99219.84;109485;1251;73691;-64
2023/08/23 05:50:53;;;;;;;19.20;10.20;;;;;;;22.99;100.00;99221.07;109600;1255;67723;-66
2023/08/23 05:53:20;;;;;;;19.30;10.80;;;;;;;23.21;100.00;99221.33;109625;1251;72178;-67
2023/08/23 05:55:50;;;;;;;21.20;9.60;;;;;;;23.32;100.00;99224.09;109657;1251;59007;-67
2023/08/23 05:58:18;;;;;;;20.50;10.10;;;;;;;23.34;100.00;99223.23;109589;1250;59242;-65
2023/08/23 06:00:45;;;;;;;14.50;10.30;;;;;;;23.38;100.00;99220.63;109624;1251;74776;-64
2023/08/23 06:03:15;;;;;;;20.30;10.30;;;;;;;23.45;100.00;99219.66;109580;1251;67892;-67
2023/08/23 06:05:43;;;;;;;18.30;10.20;;;;;;;23.50;100.00;99218.13;109629;1251;71287;-66
2023/08/23 06:08:09;;;;;;;18.20;10.00;;;;;;;23.63;100.00;99221.97;109626;1250;60067;-63
2023/08/23 06:10:36;;;;;;;15.10;10.40;;;;;;;23.93;100.00;99233.00;109656;1251;60659;-67
2023/08/23 06:13:03;;;;;;;20.20;12.40;;;;;;;24.33;100.00;99237.67;109597;1250;74802;-64
2023/08/23 06:15:30;;;;;;;14.50;12.20;;;;;;;24.58;100.00;99228.20;109584;1251;67805;-66
2023/08/23 06:17:56;;;;;;;16.90;13.30;;;;;;;24.71;100.00;99234.19;109659;1251;71094;-62
2023/08/23 06:20:25;;;;;;;20.70;13.00;;;;;;;24.79;100.00;99236.23;109598;1250;60395;-61
2023/08/23 06:22:52;;;;;;;16.60;12.00;;;;;;;24.80;100.00;99234.29;109629;1250;60680;-65
2023/08/23 06:25:19;;;;;;;24.40;13.70;;;;;;;24.77;100.00;99230.98;109552;1252;74582;-66
2023/08/23 06:27:46;;;;;;;24.60;14.20;;;;;;;24.79;100.00;99229.92;109675;1250;59053;-63
2023/08/23 06:30:16;;;;;;;19.10;12.30;;;;;;;24.85;100.00;99227.77;109634;1251;72564;-63
2023/08/23 06:32:46;;;;;;;17.20;12.50;;;;;;;24.97;100.00;99224.64;109622;1255;58961;-67
2023/08/23 06:35:16;;;;;;;16.00;12.40;;;;;;;25.07;100.00;99228.14;109556;1250;58959;-65
2023/08/23 06:37:43;;;;;;;21.10;12.60;;;;;;;25.11;100.00;99227.16;109637;1251;74489;-64
2023/08/23 06:40:10;;;;;;;12.80;11.50;;;;;;;25.07;100.00;99231.63;109599;1251;59007;-64
2023/08/23 06:42:37;;;;;;;15.10;11.90;;;;;;;25.06;100.00;99230.15;109522;1251;72018;-65
2023/08/23 06:45:05;;;;;;;15.70;11.70;;;;;;;25.05;100.00;99230.64;109574;1251;60366;-68
2023/08/23 06:47:33;;;;;;;13.30;11.60;;;;;;;25.16;100.00;99228.42;109635;1251;60278;-64
2023/08/23 06:49:59;;;;;;;28.40;11.20;;;;;;;25.40;100.00;99230.34;109676;1251;75172;-64
2023/08/23 06:52:26;;;;;;;16.30;10.40;;;;;;;25.66;100.00;99232.80;109648;1251;67914;-67
2023/08/23 06:54:53;;;;;;;24.70;13.20;;;;;;;26.00;100.00;99230.13;109602;1251;72746;-64
2023/08/23 06:57:28;;;;;;;21.40;11.70;;;;;;;26.37;100.00;99229.83;109515;1251;60164;-66
2023/08/23 06:59:58;;;;;;;20.20;12.60;;;;;;;26.86;99.21;99230.98;109599;1251;60040;-65
2023/08/23 07:02:25;;;;;;;22.30;11.30;;;;;;;27.23;98.39;99230.63;109409;1251;74163;-66
2023/08/23 07:04:52;;;;;;;14.00;10.50;;;;;;;27.45;95.84;99229.83;109514;1251;66462;-63
2023/08/23 07:07:19;;;;;;;22.80;11.00;;;;;;;27.44;92.07;99227.70;109606;1251;71189;-63
2023/08/23 07:09:46;;;;;;;12.50;10.70;;;;;;;27.30;91.94;99226.80;109569;1251;59913;-66
2023/08/23 07:12:16;;;;;;;20.90;10.80;;;;;;;27.16;91.34;99226.46;109524;1251;61023;-63
2023/08/23 07:14:42;;;;;;;14.50;10.40;;;;;;;26.98;91.72;99227.63;109489;1251;74467;-62
2023/08/23 07:17:09;;;;;;;17.20;11.60;;;;;;;26.91;93.38;99226.26;109483;1251;66858;-62
2023/08/23 07:19:36;;;;;;;20.10;10.90;;;;;;;27.01;92.38;99221.73;109499;1251;72522;-62
2023/08/23 07:22:03;;;;;;;23.30;12.60;;;;;;;26.96;91.08;99222.30;109485;1251;58996;-62
2023/08/23 07:24:30;;;;;;;14.90;10.60;;;;;;;26.86;90.37;99225.52;109498;1251;59134;-62
2023/08/23 07:26:57;;;;;;;12.60;11.00;;;;;;;26.85;91.29;99228.41;109540;1251;72684;-62
2023/08/23 07:29:24;;;;;;;17.20;10.50;;;;;;;26.89;91.17;99223.54;109597;1251;66495;-65
2023/08/23 07:31:50;;;;;;;16.80;11.70;;;;;;;26.94;91.01;99225.42;109526;1251;71445;-63
2023/08/23 07:34:18;;;;;;;15.50;10.90;;;;;;;26.98;91.22;99227.41;109570;1251;60009;-64
2023/08/23 07:36:44;;;;;;;14.40;11.10;;;;;;;26.88;88.09;99226.72;109654;1251;60169;-62
2023/08/23 07:39:11;;;;;;;20.20;11.90;;;;;;;26.61;88.91;99226.67;109646;1251;74439;-63
2023/08/23 07:41:37;;;;;;;14.80;11.00;;;;;;;26.39;90.75;99224.31;109623;1251;58996;-63
2023/08/23 07:44:04;;;;;;;25.30;11.00;;;;;;;26.22;92.01;99223.45;109637;1251;72727;-63
2023/08/23 07:46:31;;;;;;;18.20;11.00;;;;;;;26.07;92.93;99219.59;109453;1254;60386;-63
2023/08/23 07:48:57;;;;;;;17.30;9.90;;;;;;;25.99;94.14;99218.05;109668;1251;58897;-62
2023/08/23 07:51:24;;;;;;;13.70;9.90;;;;;;;25.92;94.96;99228.14;109640;1250;73358;-62
2023/08/23 07:53:51;;;;;;;17.50;9.60;;;;;;;25.82;94.48;99231.75;109558;1250;67625;-62
2023/08/23 07:56:17;;;;;;;16.20;9.80;;;;;;;25.68;96.19;99235.75;109675;1251;72638;-65
2023/08/23 07:58:44;;;;;;;15.50;9.80;;;;;;;25.63;97.46;99244.79;109580;1250;60253;-66
2023/08/23 08:01:11;;;;;;;17.90;10.60;;;;;;;25.65;97.63;99246.59;109644;1251;60100;-72
2023/08/23 08:03:39;;;;;;;15.90;9.50;;;;;;;25.76;96.88;99245.45;109607;1251;76476;-70
2023/08/23 08:06:06;;;;;;;13.80;9.40;;;;;;;26.00;96.31;99241.96;109623;1250;67794;-64
2023/08/23 08:08:33;;;;;;;13.50;9.10;;;;;;;26.22;94.57;99237.47;109538;1250;72858;-65
2023/08/23 08:11:00;;;;;;;11.80;9.10;;;;;;;26.39;92.99;99236.20;109619;1251;60357;-65
2023/08/23 08:13:26;;;;;;;10.10;8.10;;;;;;;26.60;90.78;99236.66;109600;1251;59016;-67
2023/08/23 08:15:54;;;;;;;13.50;8.30;;;;;;;26.87;88.26;99235.79;109529;1250;74864;-63
2023/08/23 08:18:21;;;;;;;13.80;8.40;;;;;;;27.03;85.82;99234.70;109457;1251;66642;-64
2023/08/23 08:20:48;;;;;;;10.30;7.90;;;;;;;26.99;83.83;99238.22;109535;1250;71440;-65
2023/08/23 08:23:15;;;;;;;9.40;7.20;;;;;;;26.83;83.16;99237.65;109579;1251;60520;-61
2023/08/23 08:25:42;;;;;;;9.20;6.90;;;;;;;26.70;83.79;99245.73;109594;1251;59439;-66
2023/08/23 08:28:10;;;;;;;12.30;6.60;;;;;;;26.64;85.05;99253.33;109571;1250;73888;-62
2023/08/23 08:30:37;;;;;;;14.70;6.60;;;;;;;26.55;85.27;99260.74;109638;1250;68014;-63
2023/08/23 08:33:03;;;;;;;11.70;6.20;;;;;;;26.39;84.39;99272.04;109474;1251;71478;-67
2023/08/23 08:35:30;;;;;;;7.30;5.10;;;;;;;26.15;85.83;99275.86;109508;1250;58934;-70
2023/08/23 08:37:57;;;;;;;6.70;4.80;;;;;;;25.93;87.62;99279.09;109509;1251;59292;-72
2023/08/23 08:40:23;;;;;;;8.10;5.00;;;;;;;25.68;88.88;99270.89;109458;1250;74605;-75
2023/08/23 08:42:50;;;;;;;6.80;3.90;;;;;;;25.42;91.74;99267.17;109472;1250;66309;-73
2023/08/23 08:45:17;;;;;;;6.60;3.60;;;;;;;25.17;92.86;99267.84;109433;1250;72470;-75
2023/08/23 08:47:43;;;;;;;15.10;5.70;;;;;;;24.92;95.21;99264.30;109452;1250;58944;-74
2023/08/23 08:50:10;;;;;;;8.70;5.80;;;;;;;24.64;99.05;99268.25;109673;1251;60079;-75
2023/08/23 08:52:38;;;;;;;11.20;6.70;;;;;;;24.32;100.00;99271.05;109553;1250;74690;-69
2023/08/23 08:55:05;;;;;;;13.80;8.50;;;;;;;24.04;100.00;99271.79;109612;1251;65700;-70
2023/08/23 08:57:31;;;;;;;14.50;10.40;;;;;;;23.82;100.00;99268.77;109497;1251;73303;-69
2023/08/23 08:59:58;;;;;;;20.80;10.20;;;;;;;23.66;100.00;99267.82;109472;1250;59379;-69
2023/08/23 09:02:25;;;;;;;16.50;10.40;;;;;;;23.51;100.00;99264.13;109461;1250;58995;-67
2023/08/23 09:04:52;;;;;;;15.90;10.20;;;;;;;23.35;100.00;99268.43;109453;1251;73669;-63
2023/08/23 09:07:18;;;;;;;15.90;10.50;;;;;;;23.19;100.00;99273.69;109506;1250;67920;-69
2023/08/23 09:09:45;;;;;;;21.30;10.90;;;;;;;23.02;100.00;99283.98;109488;1250;71502;-73
2023/08/23 09:12:11;;;;;;;12.40;10.10;;;;;;;22.80;100.00;99283.30;109538;1250;60874;-68
2023/08/23 09:14:41;;;;;;;17.20;10.60;;;;;;;22.60;100.00;99288.32;109515;1250;60125;-67
2023/08/23 09:17:10;;;;;;;16.80;10.70;;;;;;;22.47;100.00;99289.71;109510;1250;74452;-70
2023/08/23 09:19:39;;;;;;;15.70;11.40;;;;;;;22.40;100.00;99287.55;109531;1250;66351;-71
2023/08/23 09:22:06;;;;;;;17.40;11.20;;;;;;;22.31;100.00;99283.96;109524;1250;73873;-70
2023/08/23 09:24:33;;;;;;;15.40;11.10;;;;;;;22.23;100.00;99277.02;109641;1250;60347;-68
2023/08/23 09:27:00;;;;;;;15.40;10.30;;;;;;;22.14;100.00;99279.17;109677;1250;60206;-69
2023/08/23 09:29:27;;;;;;;13.00;10.60;;;;;;;22.11;100.00;99277.50;109564;1251;73418;-74
2023/08/23 09:31:59;;;;;;;12.50;9.50;;;;;;;22.08;100.00;99270.82;109515;1251;66882;-75
2023/08/23 09:34:26;;;;;;;13.90;10.30;;;;;;;22.04;100.00;99265.27;109618;1250;72459;-74
2023/08/23 09:36:53;;;;;;;18.20;12.20;;;;;;;21.99;100.00;99262.71;109588;1250;59449;-73
2023/08/23 09:39:22;;;;;;;18.20;12.50;;;;;;;21.96;100.00;99264.45;109544;1251;59372;-71
2023/08/23 09:41:48;;;;;;;21.90;13.20;;;;;;;21.94;100.00;99263.84;109639;1250;74737;-70
2023/08/23 09:44:29;;;;;;;14.00;11.70;;;;;;;21.92;100.00;99263.73;109639;1250;66954;-71
2023/08/23 09:46:59;;;;;;;17.90;14.30;;;;;;;21.92;100.00;99264.08;109549;1250;72764;-71
2023/08/23 09:49:32;;;;;;;20.10;16.60;;;;;;;21.95;100.00;99266.98;109526;1250;62318;-69
2023/08/23 09:52:02;;;;;;;26.40;20.30;;;;;;;21.98;100.00;99270.98;109541;1250;58950;-72
2023/08/23 09:54:34;;;;;;;21.90;15.30;;;;;;;22.04;100.00;99270.96;109643;1250;73799;-73
2023/08/23 09:57:20;;;;;;;11.50;8.10;;;;;;;22.25;100.00;99272.39;109587;1250;67112;-70
2023/08/23 09:59:47;;;;;;;7.40;5.90;;;;;;;22.64;100.00;99265.44;109638;1250;72525;-74
2023/08/23 10:02:16;;;;;;;8.00;6.00;;;;;;;23.10;100.00;99258.02;109611;1250;60905;-71
2023/08/23 10:04:43;;;;;;;9.80;6.50;;;;;;;23.48;100.00;99253.45;109662;1250;60255;-74
2023/08/23 10:07:13;;;;;;;7.50;6.10;;;;;;;23.75;100.00;99257.57;109590;1250;73322;-72
2023/08/23 10:09:40;;;;;;;12.20;6.60;;;;;;;23.93;100.00;99255.69;109523;1250;69348;-71
2023/08/23 10:12:08;;;;;;;9.90;7.90;;;;;;;24.08;100.00;99259.86;109598;1250;71663;-70
2023/08/23 10:14:37;;;;;;;10.70;8.90;;;;;;;24.29;100.00;99254.73;109559;1250;60458;-73
2023/08/23 10:17:04;;;;;;;9.20;6.90;;;;;;;24.65;100.00;99253.44;109552;1250;60190;-72
2023/08/23 10:19:31;;;;;;;9.50;8.00;;;;;;;25.18;100.00;99252.59;109491;1251;73449;-73
2023/08/23 10:21:58;;;;;;;9.10;5.80;;;;;;;25.67;100.00;99252.70;109526;1250;67525;-72
2023/08/23 10:24:28;;;;;;;7.10;6.40;;;;;;;26.15;100.00;99250.12;109484;1250;71888;-73
2023/08/23 10:26:55;;;;;;;8.70;6.00;;;;;;;26.54;100.00;99249.02;109518;1251;60155;-72
2023/08/23 10:29:28;;;;;;;5.60;5.20;;;;;;;26.84;100.00;99245.77;109662;1250;60301;-73
2023/08/23 10:31:55;;;;;;;5.80;4.30;;;;;;;27.21;100.00;99245.23;109567;1250;75543;-73
2023/08/23 10:34:25;;;;;;;5.10;4.50;;;;;;;27.48;100.00;99235.73;109714;1250;67605;-73
2023/08/23 10:36:53;;;;;;;5.50;3.70;;;;;;;27.63;100.00;99233.77;109564;1250;71475;-75
2023/08/23 10:39:22;;;;;;;4.90;3.50;;;;;;;27.59;100.00;99234.35;109638;1250;59366;-72
2023/08/23 10:41:52;;;;;;;7.00;4.20;;;;;;;27.42;100.00;99233.23;109582;1250;60795;-70
2023/08/23 10:44:20;;;;;;;5.80;4.50;;;;;;;27.28;100.00;99237.80;109530;1250;73521;-71
2023/08/23 10:46:49;;;;;;;6.30;4.00;;;;;;;27.22;100.00;99234.52;109635;1250;67702;-65
2023/08/23 10:49:16;;;;;;;4.40;3.90;;;;;;;27.22;100.00;99225.98;109497;1250;72955;-69
2023/08/23 10:51:43;;;;;;;5.00;4.40;;;;;;;27.26;100.00;99222.30;109550;1250;59096;-67
2023/08/23 10:54:13;;;;;;;8.60;5.60;;;;;;;27.28;100.00;99223.48;109510;1250;58939;-68
2023/08/23 10:56:40;;;;;;;8.50;6.10;;;;;;;27.24;100.00;99226.46;109553;1250;74580;-68
2023/08/23 10:59:07;;;;;;;5.20;4.70;;;;;;;27.21;100.00;99226.61;109692;1250;66742;-68
2023/08/23 11:01:34;;;;;;;6.30;5.30;;;;;;;27.22;100.00;99225.55;109609;1250;72806;-57
2023/08/23 11:04:05;;;;;;;6.10;4.60;;;;;;;27.28;100.00;99225.01;109628;1250;60132;-59
2023/08/23 11:06:32;;;;;;;6.20;3.80;;;;;;;27.32;100.00;99228.95;109647;1250;60089;-59
2023/08/23 11:08:59;;;;;;;4.50;3.40;;;;;;;27.27;99.81;99230.59;109665;1250;75943;-58